Time;durP1;ratioP1;P1;durP2;ratioP2;P2;SDS_P1;SDS_P2;PMS_P1;PMS_P2;Temp;Humidity;BMP_temperature;BMP_pressure;BME280_temperature;BME280_humidity;BME280_pressure;Samples;Min_cycle;Max_cycle;Signal;HPM_P1;HPM_P2
2022/01/15 00:00:06;;;;;;;32.90;17.77;;;;;;;;;;5077469;28;20819;-70
2022/01/15 00:02:32;;;;;;;30.13;17.73;;;;;;;;;;5056291;28;20838;-71
2022/01/15 00:04:58;;;;;;;27.93;17.60;;;;;;;;;;5073951;28;20565;-70
2022/01/15 00:07:24;;;;;;;31.50;19.33;;;;;;;;;;5074094;28;20495;-70
2022/01/15 00:09:50;;;;;;;24.93;16.60;;;;;;;;;;5074145;28;20410;-70
2022/01/15 00:12:17;;;;;;;28.50;18.03;;;;;;;;;;5074058;28;20413;-71
2022/01/15 00:14:43;;;;;;;25.87;18.50;;;;;;;;;;5073880;28;20414;-71
2022/01/15 00:17:21;;;;;;;31.87;17.57;;;;;;;;;;5073997;28;20404;-70
2022/01/15 00:19:49;;;;;;;26.40;16.83;;;;;;;;;;5074008;28;20393;-71
2022/01/15 00:22:16;;;;;;;28.47;17.30;;;;;;;;;;5055934;28;20476;-71
2022/01/15 00:24:43;;;;;;;31.13;17.83;;;;;;;;;;5073536;28;20841;-70
2022/01/15 00:27:09;;;;;;;29.70;17.80;;;;;;;;;;5073703;28;20409;-71
2022/01/15 00:29:35;;;;;;;29.93;19.07;;;;;;;;;;5055797;28;20751;-71
2022/01/15 00:32:02;;;;;;;30.73;17.97;;;;;;;;;;5073684;28;20520;-70
2022/01/15 00:34:28;;;;;;;32.50;18.43;;;;;;;;;;5055636;28;20758;-69
2022/01/15 00:36:54;;;;;;;29.13;18.00;;;;;;;;;;5073493;28;20402;-71
2022/01/15 00:39:21;;;;;;;30.87;18.10;;;;;;;;;;5073517;28;20893;-70
2022/01/15 00:41:47;;;;;;;28.77;18.23;;;;;;;;;;5073469;28;20492;-69
2022/01/15 00:44:13;;;;;;;33.40;19.30;;;;;;;;;;5073405;28;20881;-69
2022/01/15 00:46:39;;;;;;;29.20;18.23;;;;;;;;;;5055306;28;20469;-70
2022/01/15 00:49:05;;;;;;;27.33;18.60;;;;;;;;;;5073321;28;20776;-69
2022/01/15 00:51:31;;;;;;;31.63;18.37;;;;;;;;;;5073285;28;20520;-69
2022/01/15 00:53:57;;;;;;;25.63;17.77;;;;;;;;;;5072538;28;20505;-69
2022/01/15 00:56:23;;;;;;;29.57;18.43;;;;;;;;;;5073249;28;20467;-69
2022/01/15 00:58:52;;;;;;;25.43;16.73;;;;;;;;;;5073233;28;20912;-69
2022/01/15 01:01:18;;;;;;;30.63;17.57;;;;;;;;;;5073301;28;20413;-69
2022/01/15 01:03:44;;;;;;;27.53;17.50;;;;;;;;;;5073108;28;20420;-69
2022/01/15 01:06:10;;;;;;;28.73;16.60;;;;;;;;;;5072932;28;20485;-69
2022/01/15 01:08:36;;;;;;;27.80;18.00;;;;;;;;;;5073200;28;20543;-69
2022/01/15 01:11:10;;;;;;;27.07;18.17;;;;;;;;;;5073155;28;20896;-70
2022/01/15 01:24:27;;;;;;;29.77;18.53;;;;;;;;;;5044946;28;20501;-70
2022/01/15 01:27:00;;;;;;;28.27;17.37;;;;;;;;;;5072983;28;20498;-69
2022/01/15 01:29:48;;;;;;;27.43;17.70;;;;;;;;;;5055076;28;20413;-69
2022/01/15 01:35:06;;;;;;;27.70;17.40;;;;;;;;;;5072945;28;20451;-70
2022/01/15 01:37:38;;;;;;;27.40;16.70;;;;;;;;;;5072947;28;20401;-70
2022/01/15 01:40:27;;;;;;;27.77;18.30;;;;;;;;;;5072929;28;20403;-70
2022/01/15 01:43:09;;;;;;;35.30;20.25;;;;;;;;;;5072965;28;20159;-70
2022/01/15 01:45:35;;;;;;;32.58;20.25;;;;;;;;;;5072713;28;20713;-69
2022/01/15 01:48:01;;;;;;;35.45;19.05;;;;;;;;;;5072771;28;20274;-70
2022/01/15 01:50:29;;;;;;;28.63;19.00;;;;;;;;;;5072780;28;20203;-68
2022/01/15 01:52:57;;;;;;;42.38;19.60;;;;;;;;;;5072684;28;20739;-69
2022/01/15 01:55:24;;;;;;;35.15;20.50;;;;;;;;;;5072616;28;20172;-68
2022/01/15 01:57:51;;;;;;;32.28;19.23;;;;;;;;;;5072777;28;20171;-68
2022/01/15 02:00:19;;;;;;;32.17;20.52;;;;;;;;;;5072472;28;20211;-68
2022/01/15 02:02:45;;;;;;;28.70;18.92;;;;;;;;;;5072689;28;20188;-68
2022/01/15 02:05:11;;;;;;;30.95;19.33;;;;;;;;;;5056148;28;20203;-68
2022/01/15 02:07:38;;;;;;;31.20;19.17;;;;;;;;;;5058468;28;20206;-68
2022/01/15 02:10:08;;;;;;;34.10;20.98;;;;;;;;;;5076306;28;20251;-69
2022/01/15 02:12:34;;;;;;;32.50;20.48;;;;;;;;;;5076234;28;20260;-68
2022/01/15 02:15:05;;;;;;;39.67;21.17;;;;;;;;;;5076159;28;20633;-69
2022/01/15 02:17:31;;;;;;;35.88;20.05;;;;;;;;;;5058216;28;20917;-68
2022/01/15 02:20:10;;;;;;;29.93;20.33;;;;;;;;;;5076135;28;20164;-68
2022/01/15 02:25:21;;;;;;;28.13;17.25;;;;;;;;;;5076106;28;20243;-68
2022/01/15 02:27:47;;;;;;;31.70;18.45;;;;;;;;;;5076044;28;20256;-69
2022/01/15 02:30:13;;;;;;;31.13;19.10;;;;;;;;;;5075979;28;20232;-68
2022/01/15 02:32:39;;;;;;;31.15;18.05;;;;;;;;;;5057945;28;20446;-68
2022/01/15 02:35:06;;;;;;;29.47;17.43;;;;;;;;;;5075768;28;20205;-68
2022/01/15 02:37:32;;;;;;;31.57;18.57;;;;;;;;;;5057792;28;20796;-68
2022/01/15 02:39:58;;;;;;;32.20;20.00;;;;;;;;;;5075584;28;20541;-70
2022/01/15 02:42:28;;;;;;;29.73;18.20;;;;;;;;;;5075758;28;20910;-70
2022/01/15 02:45:00;;;;;;;23.95;16.10;;;;;;;;;;5057500;28;20487;-68
2022/01/15 02:50:10;;;;;;;28.42;17.60;;;;;;;;;;5075711;28;20785;-68
2022/01/15 02:52:37;;;;;;;25.90;16.33;;;;;;;;;;5075572;28;20210;-68
2022/01/15 02:55:03;;;;;;;28.38;16.67;;;;;;;;;;5075415;28;20236;-68
2022/01/15 02:57:29;;;;;;;25.77;17.38;;;;;;;;;;5075414;28;20250;-68
2022/01/15 02:59:55;;;;;;;28.33;15.50;;;;;;;;;;5075368;28;20302;-69
2022/01/15 03:02:21;;;;;;;29.87;17.03;;;;;;;;;;5075423;28;20768;-68
2022/01/15 03:04:48;;;;;;;24.88;16.17;;;;;;;;;;5074737;28;20508;-70
2022/01/15 03:07:14;;;;;;;23.08;15.50;;;;;;;;;;5075201;28;20179;-70
2022/01/15 03:09:41;;;;;;;28.30;17.30;;;;;;;;;;5075341;28;20640;-70
2022/01/15 03:12:07;;;;;;;30.85;19.30;;;;;;;;;;5075262;28;20440;-68
2022/01/15 03:14:33;;;;;;;28.70;16.70;;;;;;;;;;5075072;28;20175;-69
2022/01/15 03:16:59;;;;;;;25.25;16.65;;;;;;;;;;5074524;28;20479;-69
2022/01/15 03:19:25;;;;;;;28.48;17.30;;;;;;;;;;5075141;28;20185;-68
2022/01/15 03:21:51;;;;;;;28.55;18.23;;;;;;;;;;5074993;28;20260;-69
2022/01/15 03:24:17;;;;;;;27.70;16.97;;;;;;;;;;5074837;28;20247;-69
2022/01/15 03:26:43;;;;;;;28.70;17.47;;;;;;;;;;5074830;28;20473;-67
2022/01/15 03:29:09;;;;;;;23.90;16.67;;;;;;;;;;5074937;28;20413;-67
2022/01/15 03:31:35;;;;;;;30.37;17.90;;;;;;;;;;5056904;28;20418;-67
2022/01/15 03:34:01;;;;;;;29.00;17.20;;;;;;;;;;5056698;28;20749;-67
2022/01/15 03:36:27;;;;;;;26.40;17.30;;;;;;;;;;5074704;28;20465;-67
2022/01/15 03:38:53;;;;;;;28.60;16.70;;;;;;;;;;5074458;28;20411;-67
2022/01/15 03:41:19;;;;;;;30.20;18.27;;;;;;;;;;5074575;28;20767;-67
2022/01/15 03:43:46;;;;;;;28.10;18.20;;;;;;;;;;5074332;28;20740;-70
2022/01/15 03:46:12;;;;;;;31.38;18.15;;;;;;;;;;5074477;28;20468;-69
2022/01/15 03:48:38;;;;;;;26.83;17.33;;;;;;;;;;5056388;28;20210;-67
2022/01/15 03:51:04;;;;;;;34.50;17.07;;;;;;;;;;5074241;28;20470;-67
2022/01/15 03:53:30;;;;;;;29.30;17.57;;;;;;;;;;5056378;28;20518;-67
2022/01/15 03:55:56;;;;;;;26.53;16.70;;;;;;;;;;5074231;28;20420;-67
2022/01/15 03:58:22;;;;;;;25.05;16.00;;;;;;;;;;5073905;28;20428;-67
2022/01/15 04:00:48;;;;;;;28.90;16.80;;;;;;;;;;5074181;28;20167;-69
2022/01/15 04:03:14;;;;;;;23.23;16.20;;;;;;;;;;5056176;28;20414;-67
2022/01/15 04:05:40;;;;;;;27.27;15.77;;;;;;;;;;5074068;28;20457;-67
2022/01/15 04:08:07;;;;;;;24.15;15.65;;;;;;;;;;5056136;28;20489;-69
2022/01/15 04:10:33;;;;;;;24.77;15.45;;;;;;;;;;5073953;28;20215;-67
2022/01/15 04:12:59;;;;;;;25.95;16.73;;;;;;;;;;5073965;28;20172;-67
2022/01/15 04:15:26;;;;;;;30.73;17.67;;;;;;;;;;5055782;28;20664;-69
2022/01/15 04:17:52;;;;;;;29.48;17.65;;;;;;;;;;5073700;28;20513;-67
2022/01/15 04:20:21;;;;;;;23.63;16.85;;;;;;;;;;5055761;28;20209;-67
2022/01/15 04:22:48;;;;;;;27.50;18.17;;;;;;;;;;5073591;28;20165;-67
2022/01/15 04:25:14;;;;;;;26.10;17.23;;;;;;;;;;5073234;28;20215;-68
2022/01/15 04:27:41;;;;;;;23.77;15.88;;;;;;;;;;5073159;28;20446;-67
2022/01/15 04:30:08;;;;;;;25.70;16.00;;;;;;;;;;5073232;28;20171;-70
2022/01/15 04:32:34;;;;;;;29.37;17.10;;;;;;;;;;5055585;28;20557;-69
2022/01/15 04:35:00;;;;;;;26.95;16.73;;;;;;;;;;5073478;28;20884;-69
2022/01/15 04:37:36;;;;;;;26.17;16.30;;;;;;;;;;5073647;28;20174;-70
2022/01/15 04:40:04;;;;;;;28.20;15.83;;;;;;;;;;5073526;28;20395;-70
2022/01/15 04:42:30;;;;;;;22.90;15.07;;;;;;;;;;5073387;28;20438;-70
2022/01/15 04:44:56;;;;;;;22.10;15.27;;;;;;;;;;5073136;28;20555;-70
2022/01/15 04:47:22;;;;;;;21.10;14.10;;;;;;;;;;5055446;28;20422;-70
2022/01/15 04:49:48;;;;;;;25.60;14.70;;;;;;;;;;5055573;28;20636;-69
2022/01/15 04:52:14;;;;;;;23.20;15.00;;;;;;;;;;5073298;28;20407;-69
2022/01/15 04:54:40;;;;;;;23.15;14.77;;;;;;;;;;5073314;28;20683;-69
2022/01/15 04:57:06;;;;;;;32.22;15.88;;;;;;;;;;5073230;28;20623;-69
2022/01/15 04:59:32;;;;;;;26.30;15.50;;;;;;;;;;5073160;28;20233;-70
2022/01/15 05:01:58;;;;;;;25.80;15.50;;;;;;;;;;5055302;28;20491;-71
2022/01/15 05:04:24;;;;;;;24.17;14.83;;;;;;;;;;5054958;28;20762;-71
2022/01/15 05:06:50;;;;;;;22.80;16.13;;;;;;;;;;5073032;28;20525;-70
2022/01/15 05:09:16;;;;;;;23.27;14.93;;;;;;;;;;5073146;28;20412;-70
2022/01/15 05:12:06;;;;;;;22.07;14.03;;;;;;;;;;5073152;28;20902;-70
2022/01/15 05:14:32;;;;;;;23.70;16.02;;;;;;;;;;5072937;28;20907;-70
2022/01/15 05:16:58;;;;;;;26.10;15.87;;;;;;;;;;5073077;28;20254;-69
2022/01/15 05:19:24;;;;;;;28.42;16.02;;;;;;;;;;5072918;28;20917;-70
2022/01/15 05:21:52;;;;;;;24.38;15.25;;;;;;;;;;5054980;28;20187;-69
2022/01/15 05:24:19;;;;;;;25.80;16.05;;;;;;;;;;5072868;28;20165;-68
2022/01/15 05:26:45;;;;;;;29.05;16.05;;;;;;;;;;5072947;28;20209;-70
2022/01/15 05:29:11;;;;;;;20.77;13.70;;;;;;;;;;5072963;28;20167;-67
2022/01/15 05:31:37;;;;;;;24.40;15.50;;;;;;;;;;5072876;28;20490;-68
2022/01/15 05:34:03;;;;;;;23.70;14.33;;;;;;;;;;5054818;28;20273;-70
2022/01/15 05:36:29;;;;;;;24.50;14.75;;;;;;;;;;5072869;28;20765;-68
2022/01/15 05:38:55;;;;;;;25.03;15.13;;;;;;;;;;5072696;28;20183;-69
2022/01/15 05:41:20;;;;;;;25.50;15.07;;;;;;;;;;5058578;28;20413;-69
2022/01/15 05:43:47;;;;;;;24.17;16.10;;;;;;;;;;5058721;28;20410;-70
2022/01/15 05:46:13;;;;;;;24.02;15.30;;;;;;;;;;5076733;28;20474;-68
2022/01/15 05:48:39;;;;;;;28.25;16.40;;;;;;;;;;5076775;28;20201;-67
2022/01/15 05:51:05;;;;;;;24.05;15.90;;;;;;;;;;5076679;28;20180;-67
2022/01/15 05:53:31;;;;;;;24.50;16.05;;;;;;;;;;5076596;28;20251;-68
2022/01/15 05:55:57;;;;;;;29.55;16.13;;;;;;;;;;5076529;28;20190;-67
2022/01/15 05:58:23;;;;;;;31.33;16.23;;;;;;;;;;5076413;28;20162;-67
2022/01/15 06:00:49;;;;;;;21.23;14.53;;;;;;;;;;5076620;28;20924;-68
2022/01/15 06:03:15;;;;;;;21.35;15.05;;;;;;;;;;5076236;28;20919;-68
2022/01/15 06:05:41;;;;;;;21.53;15.30;;;;;;;;;;5076356;28;20212;-68
2022/01/15 06:08:07;;;;;;;25.77;17.03;;;;;;;;;;5076370;28;20402;-69
2022/01/15 06:10:34;;;;;;;22.97;15.47;;;;;;;;;;5076252;28;20418;-68
2022/01/15 06:13:00;;;;;;;21.77;14.55;;;;;;;;;;5076417;28;20421;-67
2022/01/15 06:15:26;;;;;;;21.80;15.70;;;;;;;;;;5076218;28;20172;-67
2022/01/15 06:17:52;;;;;;;29.47;15.63;;;;;;;;;;5076224;28;20175;-68
2022/01/15 06:20:18;;;;;;;24.20;15.10;;;;;;;;;;5076186;28;20884;-68
2022/01/15 06:22:44;;;;;;;25.27;15.80;;;;;;;;;;5076031;28;20406;-68
2022/01/15 06:25:10;;;;;;;27.00;15.90;;;;;;;;;;5075910;28;21031;-67
2022/01/15 06:27:36;;;;;;;24.90;16.40;;;;;;;;;;5057953;28;20926;-67
2022/01/15 06:30:03;;;;;;;22.47;15.50;;;;;;;;;;5075992;28;20176;-68
2022/01/15 06:32:35;;;;;;;29.10;16.50;;;;;;;;;;5076080;28;20411;-68
2022/01/15 06:35:01;;;;;;;20.23;14.52;;;;;;;;;;5075979;28;20218;-68
2022/01/15 06:37:27;;;;;;;23.17;15.23;;;;;;;;;;5075935;28;20176;-68
2022/01/15 06:39:53;;;;;;;26.47;16.07;;;;;;;;;;5075850;28;20183;-68
2022/01/15 06:42:19;;;;;;;24.77;16.30;;;;;;;;;;5075933;28;20425;-68
2022/01/15 06:44:45;;;;;;;25.50;16.50;;;;;;;;;;5075469;28;20494;-68
2022/01/15 06:47:11;;;;;;;22.40;14.10;;;;;;;;;;5075748;28;20879;-68
2022/01/15 06:49:38;;;;;;;22.57;14.57;;;;;;;;;;5057755;28;20409;-68
2022/01/15 06:52:04;;;;;;;23.85;14.95;;;;;;;;;;5074552;28;20932;-68
2022/01/15 06:54:30;;;;;;;26.05;15.00;;;;;;;;;;5075534;28;20175;-68
2022/01/15 06:56:56;;;;;;;24.67;14.55;;;;;;;;;;5075490;28;20223;-68
2022/01/15 06:59:22;;;;;;;24.60;15.20;;;;;;;;;;5075381;28;20582;-68
2022/01/15 07:01:49;;;;;;;21.23;14.60;;;;;;;;;;5075543;28;20613;-68
2022/01/15 07:04:15;;;;;;;26.23;14.25;;;;;;;;;;5075251;28;20250;-68
2022/01/15 07:06:41;;;;;;;21.70;14.13;;;;;;;;;;5057339;28;20220;-69
2022/01/15 07:09:07;;;;;;;21.07;13.60;;;;;;;;;;5075313;28;20167;-69
2022/01/15 07:11:33;;;;;;;29.33;16.25;;;;;;;;;;5075259;28;20436;-70
2022/01/15 07:13:59;;;;;;;24.33;14.60;;;;;;;;;;5075122;28;20630;-68
2022/01/15 07:16:25;;;;;;;21.27;14.63;;;;;;;;;;5075152;28;20429;-69
2022/01/15 07:18:51;;;;;;;24.93;15.80;;;;;;;;;;5057210;28;20421;-69
2022/01/15 07:21:17;;;;;;;23.60;15.77;;;;;;;;;;5075056;28;20413;-69
2022/01/15 07:23:43;;;;;;;28.40;15.40;;;;;;;;;;5056805;28;20451;-70
2022/01/15 07:26:10;;;;;;;24.30;14.77;;;;;;;;;;5074914;28;20515;-68
2022/01/15 07:28:36;;;;;;;19.88;13.73;;;;;;;;;;5075058;28;20173;-68
2022/01/15 07:31:02;;;;;;;27.83;16.38;;;;;;;;;;5074888;28;20526;-68
2022/01/15 07:33:28;;;;;;;23.63;14.80;;;;;;;;;;5074729;28;20216;-67
2022/01/15 07:35:55;;;;;;;24.95;14.85;;;;;;;;;;5074762;28;20649;-69
2022/01/15 07:38:21;;;;;;;25.25;15.05;;;;;;;;;;5074767;28;20717;-68
2022/01/15 07:40:48;;;;;;;21.73;14.02;;;;;;;;;;5074611;28;20170;-69
2022/01/15 07:43:14;;;;;;;22.48;14.50;;;;;;;;;;5074473;28;20182;-70
2022/01/15 07:45:40;;;;;;;28.15;16.58;;;;;;;;;;5074543;28;20207;-68
2022/01/15 07:48:06;;;;;;;23.13;15.18;;;;;;;;;;5074606;28;20167;-68
2022/01/15 07:50:32;;;;;;;27.95;15.15;;;;;;;;;;5074512;28;20170;-68
2022/01/15 07:52:58;;;;;;;24.40;15.43;;;;;;;;;;5074494;28;20167;-68
2022/01/15 07:55:25;;;;;;;22.30;15.48;;;;;;;;;;5074430;28;20171;-68
2022/01/15 07:57:52;;;;;;;27.98;16.75;;;;;;;;;;5056404;28;20211;-68
2022/01/15 08:00:18;;;;;;;22.67;15.27;;;;;;;;;;5073946;28;20570;-69
2022/01/15 08:02:44;;;;;;;26.25;15.93;;;;;;;;;;5073894;28;20178;-68
2022/01/15 08:05:11;;;;;;;29.10;17.30;;;;;;;;;;5056176;28;20265;-68
2022/01/15 08:07:40;;;;;;;23.27;16.65;;;;;;;;;;5074222;28;20202;-68
2022/01/15 08:10:08;;;;;;;25.90;15.25;;;;;;;;;;5074046;28;20203;-71
2022/01/15 08:12:34;;;;;;;27.17;17.15;;;;;;;;;;5073951;28;20229;-67
2022/01/15 08:15:01;;;;;;;23.17;15.13;;;;;;;;;;5073917;28;20259;-68
2022/01/15 08:17:27;;;;;;;19.75;14.00;;;;;;;;;;5073825;28;20180;-69
2022/01/15 08:19:53;;;;;;;26.70;15.93;;;;;;;;;;5056023;28;20179;-68
2022/01/15 08:22:19;;;;;;;24.87;16.33;;;;;;;;;;5073789;28;20167;-70
2022/01/15 08:24:45;;;;;;;27.17;17.17;;;;;;;;;;5055784;28;20928;-67
2022/01/15 08:27:11;;;;;;;26.33;16.87;;;;;;;;;;5055899;28;20430;-68
2022/01/15 08:29:37;;;;;;;24.63;15.00;;;;;;;;;;5073781;28;20407;-68
2022/01/15 08:32:03;;;;;;;28.83;16.03;;;;;;;;;;5073700;28;20249;-69
2022/01/15 08:34:29;;;;;;;26.53;16.10;;;;;;;;;;5073564;28;20414;-68
2022/01/15 08:36:55;;;;;;;25.23;15.97;;;;;;;;;;5073562;28;20436;-68
2022/01/15 08:39:21;;;;;;;23.17;16.70;;;;;;;;;;5073577;28;20407;-68
2022/01/15 08:41:48;;;;;;;23.47;15.80;;;;;;;;;;5073400;28;20939;-68
2022/01/15 08:44:23;;;;;;;20.67;15.18;;;;;;;;;;5073348;28;20422;-71
2022/01/15 08:46:50;;;;;;;26.60;16.50;;;;;;;;;;5073469;28;20260;-67
2022/01/15 08:49:16;;;;;;;22.63;15.90;;;;;;;;;;5073436;28;20397;-69
2022/01/15 08:51:42;;;;;;;22.87;16.30;;;;;;;;;;5073376;28;20404;-67
2022/01/15 08:54:08;;;;;;;25.90;17.37;;;;;;;;;;5073283;28;20385;-68
2022/01/15 08:56:34;;;;;;;27.70;17.47;;;;;;;;;;5073393;28;20904;-70
2022/01/15 08:59:01;;;;;;;24.90;16.10;;;;;;;;;;5073247;28;20461;-68
2022/01/15 09:01:27;;;;;;;22.40;16.60;;;;;;;;;;5073401;28;20422;-70
2022/01/15 09:03:55;;;;;;;26.70;17.80;;;;;;;;;;5073234;28;20403;-68
2022/01/15 09:06:21;;;;;;;27.17;16.40;;;;;;;;;;5055011;28;20471;-70
2022/01/15 09:08:47;;;;;;;28.40;16.40;;;;;;;;;;5073280;28;20402;-71
2022/01/15 09:11:13;;;;;;;24.07;16.50;;;;;;;;;;5055295;28;20459;-70
2022/01/15 09:13:40;;;;;;;22.70;17.00;;;;;;;;;;5072904;28;20398;-70
2022/01/15 09:16:06;;;;;;;24.10;16.90;;;;;;;;;;5072689;28;20417;-70
2022/01/15 09:18:34;;;;;;;23.30;16.50;;;;;;;;;;5072959;28;20409;-68
2022/01/15 09:21:00;;;;;;;27.00;16.63;;;;;;;;;;5073113;28;20494;-68
2022/01/15 09:23:27;;;;;;;26.37;17.33;;;;;;;;;;5072916;28;20407;-68
2022/01/15 09:25:53;;;;;;;27.17;16.63;;;;;;;;;;5072869;28;20550;-68
2022/01/15 09:31:03;;;;;;;26.10;17.50;;;;;;;;;;5073158;28;20811;-70
2022/01/15 09:33:29;;;;;;;28.63;19.33;;;;;;;;;;5072887;28;20501;-70
2022/01/15 09:35:55;;;;;;;27.00;18.73;;;;;;;;;;5072992;28;20456;-68
2022/01/15 09:38:22;;;;;;;29.20;19.10;;;;;;;;;;5054933;28;20193;-68
2022/01/15 09:40:48;;;;;;;26.20;18.65;;;;;;;;;;5054954;28;20411;-70
2022/01/15 09:43:15;;;;;;;38.72;19.27;;;;;;;;;;5072840;28;20168;-68
2022/01/15 09:45:42;;;;;;;27.80;19.10;;;;;;;;;;5054799;28;20686;-67
2022/01/15 09:48:08;;;;;;;32.85;18.85;;;;;;;;;;5072832;28;20167;-68
2022/01/15 09:50:36;;;;;;;30.58;19.38;;;;;;;;;;5072820;28;20270;-69
2022/01/15 09:53:03;;;;;;;30.98;21.00;;;;;;;;;;5072751;28;20178;-69
2022/01/15 09:55:29;;;;;;;32.70;19.88;;;;;;;;;;5072818;28;20180;-68
2022/01/15 09:57:56;;;;;;;30.15;19.17;;;;;;;;;;5054673;28;20230;-69
2022/01/15 10:00:23;;;;;;;30.02;19.70;;;;;;;;;;5089137;28;20229;-69
2022/01/15 10:02:51;;;;;;;29.13;20.17;;;;;;;;;;5092663;28;20166;-68
2022/01/15 10:05:17;;;;;;;32.53;19.67;;;;;;;;;;5092755;28;20276;-68
2022/01/15 10:08:04;;;;;;;33.50;21.98;;;;;;;;;;5092895;28;20207;-69
2022/01/15 10:10:31;;;;;;;30.70;20.20;;;;;;;;;;5092700;28;20168;-67
2022/01/15 10:13:11;;;;;;;33.38;21.77;;;;;;;;;;5091314;28;20251;-68
2022/01/15 10:15:37;;;;;;;34.28;19.00;;;;;;;;;;5091472;28;20178;-69
2022/01/15 10:18:17;;;;;;;32.43;20.80;;;;;;;;;;5092640;28;20176;-68
2022/01/15 10:20:43;;;;;;;36.03;20.65;;;;;;;;;;5091406;28;20400;-68
2022/01/15 10:23:15;;;;;;;29.70;20.95;;;;;;;;;;5092517;28;20257;-68
2022/01/15 10:25:41;;;;;;;37.45;22.63;;;;;;;;;;5093512;28;20203;-68
2022/01/15 10:28:08;;;;;;;30.03;20.63;;;;;;;;;;5094991;28;20250;-68
2022/01/15 10:30:34;;;;;;;29.30;19.93;;;;;;;;;;5096281;28;20754;-68
2022/01/15 10:33:02;;;;;;;33.43;22.43;;;;;;;;;;5094968;28;20934;-68
2022/01/15 10:35:31;;;;;;;29.42;21.08;;;;;;;;;;5094947;28;20884;-68
2022/01/15 10:37:57;;;;;;;35.47;22.23;;;;;;;;;;5094791;28;20171;-69
2022/01/15 10:40:25;;;;;;;31.43;21.23;;;;;;;;;;5096213;28;20181;-68
2022/01/15 10:42:56;;;;;;;32.20;21.30;;;;;;;;;;5095958;28;20966;-69
2022/01/15 10:45:23;;;;;;;35.87;22.83;;;;;;;;;;5095977;28;20453;-70
2022/01/15 10:47:52;;;;;;;33.50;20.67;;;;;;;;;;5095997;28;20397;-68
2022/01/15 10:50:26;;;;;;;34.83;21.57;;;;;;;;;;5094774;28;20179;-68
2022/01/15 10:52:53;;;;;;;31.63;21.70;;;;;;;;;;5095720;28;20411;-69
2022/01/15 10:55:24;;;;;;;31.27;22.57;;;;;;;;;;5095778;28;20811;-68
2022/01/15 10:57:55;;;;;;;31.25;21.42;;;;;;;;;;5095727;28;20495;-68
2022/01/15 11:00:23;;;;;;;37.35;23.40;;;;;;;;;;5076517;28;20215;-67
2022/01/15 11:02:50;;;;;;;35.03;22.42;;;;;;;;;;5057253;28;20168;-68
2022/01/15 11:05:21;;;;;;;41.60;22.97;;;;;;;;;;5075244;28;20725;-70
2022/01/15 11:07:47;;;;;;;32.30;21.30;;;;;;;;;;5075357;28;20497;-68
2022/01/15 11:10:13;;;;;;;33.53;22.43;;;;;;;;;;5057368;28;20415;-68
2022/01/15 11:12:40;;;;;;;32.63;22.53;;;;;;;;;;5057230;28;20401;-68
2022/01/15 11:15:06;;;;;;;32.60;21.50;;;;;;;;;;5075157;28;20389;-68
2022/01/15 11:17:33;;;;;;;34.07;21.43;;;;;;;;;;5075098;28;20773;-68
2022/01/15 11:20:01;;;;;;;33.63;21.17;;;;;;;;;;5075083;28;20912;-68
2022/01/15 11:22:27;;;;;;;28.37;20.50;;;;;;;;;;5074830;28;20405;-68
2022/01/15 11:24:53;;;;;;;30.23;22.10;;;;;;;;;;5074948;28;20441;-69
2022/01/15 11:27:19;;;;;;;34.57;21.80;;;;;;;;;;5074915;28;20179;-69
2022/01/15 11:29:46;;;;;;;31.90;20.40;;;;;;;;;;5074914;28;20496;-68
2022/01/15 11:32:13;;;;;;;36.77;22.20;;;;;;;;;;5074841;28;20412;-68
2022/01/15 11:34:41;;;;;;;35.23;22.00;;;;;;;;;;5056743;28;21038;-69
2022/01/15 11:37:17;;;;;;;35.10;20.70;;;;;;;;;;5074170;28;20402;-68
2022/01/15 11:39:43;;;;;;;32.03;21.97;;;;;;;;;;5074701;28;20433;-69
2022/01/15 11:42:24;;;;;;;34.30;21.40;;;;;;;;;;5074589;28;20468;-68
2022/01/15 11:44:50;;;;;;;31.80;20.03;;;;;;;;;;5074373;28;20410;-69
2022/01/15 11:47:20;;;;;;;26.73;19.73;;;;;;;;;;5056575;28;20433;-68
2022/01/15 11:49:47;;;;;;;32.20;21.43;;;;;;;;;;5074464;28;20995;-68
2022/01/15 11:52:14;;;;;;;32.80;21.80;;;;;;;;;;5056469;28;20428;-68
2022/01/15 11:54:41;;;;;;;33.80;23.37;;;;;;;;;;5074260;28;20414;-69
2022/01/15 11:57:39;;;;;;;33.00;21.40;;;;;;;;;;5074325;28;20454;-68
2022/01/15 12:00:32;;;;;;;33.80;22.57;;;;;;;;;;5027934;28;20464;-68
2022/01/15 12:02:59;;;;;;;32.07;21.17;;;;;;;;;;5090728;28;20440;-68
2022/01/15 12:05:27;;;;;;;28.87;20.70;;;;;;;;;;5094345;28;20486;-68
2022/01/15 12:08:02;;;;;;;36.80;22.03;;;;;;;;;;5093186;28;20924;-68
2022/01/15 12:10:41;;;;;;;30.93;21.80;;;;;;;;;;5094434;28;20416;-69
2022/01/15 12:13:20;;;;;;;32.40;21.53;;;;;;;;;;5094187;28;20815;-69
2022/01/15 12:15:50;;;;;;;33.63;20.70;;;;;;;;;;5094453;28;20408;-69
2022/01/15 12:18:18;;;;;;;35.93;20.80;;;;;;;;;;5094319;28;20404;-70
2022/01/15 12:20:44;;;;;;;33.27;21.50;;;;;;;;;;5094339;28;20446;-68
2022/01/15 12:23:19;;;;;;;31.53;20.87;;;;;;;;;;5093946;28;20457;-68
2022/01/15 12:25:46;;;;;;;29.27;19.97;;;;;;;;;;5093893;28;20831;-68
2022/01/15 12:28:16;;;;;;;30.47;20.40;;;;;;;;;;5092800;28;20432;-68
2022/01/15 12:30:46;;;;;;;34.07;20.73;;;;;;;;;;5094014;28;20440;-68
2022/01/15 12:33:13;;;;;;;31.10;19.83;;;;;;;;;;5093842;28;20929;-68
2022/01/15 12:35:40;;;;;;;31.50;19.80;;;;;;;;;;5093792;28;20400;-68
2022/01/15 12:38:07;;;;;;;29.10;20.80;;;;;;;;;;5093773;28;20494;-68
2022/01/15 12:40:46;;;;;;;38.27;21.40;;;;;;;;;;5093796;28;20403;-68
2022/01/15 12:43:21;;;;;;;33.17;20.97;;;;;;;;;;5093630;28;20408;-69
2022/01/15 12:45:48;;;;;;;31.17;19.60;;;;;;;;;;5093687;28;20444;-69
2022/01/15 12:48:15;;;;;;;34.33;20.00;;;;;;;;;;5093678;28;20413;-68
2022/01/15 12:50:43;;;;;;;32.13;19.73;;;;;;;;;;5092863;28;20453;-68
2022/01/15 12:53:09;;;;;;;31.60;19.70;;;;;;;;;;5093473;28;20397;-69
2022/01/15 12:55:36;;;;;;;31.80;20.00;;;;;;;;;;5093559;28;20953;-69
2022/01/15 12:58:04;;;;;;;31.57;19.10;;;;;;;;;;5093528;28;20426;-69
2022/01/15 13:00:31;;;;;;;34.43;20.57;;;;;;;;;;5075337;28;20465;-68
2022/01/15 13:03:05;;;;;;;34.70;21.30;;;;;;;;;;5055008;28;20453;-68
2022/01/15 13:05:32;;;;;;;33.80;21.33;;;;;;;;;;5073094;28;20976;-69
2022/01/15 13:08:17;;;;;;;29.53;20.40;;;;;;;;;;5072970;28;20436;-69
2022/01/15 13:10:58;;;;;;;29.50;19.70;;;;;;;;;;5073126;28;20451;-69
2022/01/15 13:13:25;;;;;;;29.27;20.07;;;;;;;;;;5073075;28;20826;-69
2022/01/15 13:15:58;;;;;;;31.10;19.67;;;;;;;;;;5073160;28;20445;-68
2022/01/15 13:18:27;;;;;;;34.50;21.00;;;;;;;;;;5072943;28;20405;-67
2022/01/15 13:20:53;;;;;;;31.40;20.57;;;;;;;;;;5055055;28;20958;-69
2022/01/15 13:23:20;;;;;;;32.20;20.47;;;;;;;;;;5072751;28;20406;-68
2022/01/15 13:25:49;;;;;;;36.07;22.63;;;;;;;;;;5072785;28;20468;-68
2022/01/15 13:28:15;;;;;;;33.10;22.50;;;;;;;;;;5072879;28;20401;-67
2022/01/15 13:30:41;;;;;;;33.93;21.33;;;;;;;;;;5072954;28;20410;-68
2022/01/15 13:33:08;;;;;;;36.20;21.93;;;;;;;;;;5072759;28;20501;-68
2022/01/15 13:35:37;;;;;;;32.63;20.73;;;;;;;;;;5072848;28;20468;-69
2022/01/15 13:38:07;;;;;;;33.40;21.30;;;;;;;;;;5072899;28;20414;-70
2022/01/15 13:40:35;;;;;;;37.57;23.10;;;;;;;;;;5072820;28;20404;-68
2022/01/15 13:43:01;;;;;;;39.33;21.20;;;;;;;;;;5072635;28;20402;-69
2022/01/15 13:45:32;;;;;;;32.13;21.97;;;;;;;;;;5072730;28;20520;-69
2022/01/15 13:48:15;;;;;;;37.20;21.93;;;;;;;;;;5072876;28;20410;-69
2022/01/15 13:53:41;;;;;;;35.33;22.30;;;;;;;;;;5072935;28;20784;-69
2022/01/15 13:56:15;;;;;;;36.13;21.70;;;;;;;;;;5072560;28;20424;-68
2022/01/15 13:58:41;;;;;;;37.43;22.20;;;;;;;;;;5054456;28;20499;-69
2022/01/15 14:01:16;;;;;;;35.10;21.40;;;;;;;;;;5074236;28;20436;-68
2022/01/15 14:03:42;;;;;;;35.23;22.13;;;;;;;;;;5076405;28;20411;-68
2022/01/15 14:06:08;;;;;;;32.13;21.30;;;;;;;;;;5076355;28;20548;-68
2022/01/15 14:08:34;;;;;;;38.23;23.17;;;;;;;;;;5076375;28;20409;-68
2022/01/15 14:11:00;;;;;;;35.77;22.87;;;;;;;;;;5076328;28;20402;-68
2022/01/15 14:13:29;;;;;;;35.60;23.43;;;;;;;;;;5058231;28;20414;-68
2022/01/15 14:15:55;;;;;;;36.27;20.60;;;;;;;;;;5076258;28;20565;-68
2022/01/15 14:18:30;;;;;;;33.10;20.87;;;;;;;;;;5076240;28;20396;-68
2022/01/15 14:23:42;;;;;;;35.73;22.70;;;;;;;;;;5075937;28;21039;-68
2022/01/15 14:26:18;;;;;;;35.93;22.17;;;;;;;;;;5076157;28;20459;-68
2022/01/15 14:28:44;;;;;;;35.03;21.40;;;;;;;;;;5076035;28;20491;-67
2022/01/15 14:31:10;;;;;;;41.73;21.97;;;;;;;;;;5076075;28;20870;-67
2022/01/15 14:33:36;;;;;;;35.10;22.27;;;;;;;;;;5075833;28;20437;-70
2022/01/15 14:36:03;;;;;;;39.80;25.30;;;;;;;;;;5075962;28;20481;-68
2022/01/15 14:38:29;;;;;;;39.20;23.63;;;;;;;;;;5075719;28;20767;-69
2022/01/15 14:40:56;;;;;;;38.73;23.93;;;;;;;;;;5075838;28;20455;-68
2022/01/15 14:43:23;;;;;;;38.07;23.90;;;;;;;;;;5075634;28;20502;-69
2022/01/15 14:45:49;;;;;;;36.00;23.33;;;;;;;;;;5075531;28;20569;-68